Time;durP1;ratioP1;P1;durP2;ratioP2;P2;SDS_P1;SDS_P2;PMS_P1;PMS_P2;Temp;Humidity;BMP_temperature;BMP_pressure;BME280_temperature;BME280_humidity;BME280_pressure;Samples;Min_cycle;Max_cycle;Signal;HPM_P1;HPM_P2
2023/05/29 00:01:55;;;;;;;1.08;0.60;;;14.30;99.90;;;;;;5063614;28;20515;-62
2023/05/29 00:04:23;;;;;;;2.80;1.33;;;14.40;99.90;;;;;;5092770;28;20078;-60
2023/05/29 00:06:50;;;;;;;3.75;0.70;;;14.60;99.90;;;;;;5086296;28;20024;-62
2023/05/29 00:09:18;;;;;;;3.03;0.60;;;14.80;99.90;;;;;;5086569;28;20028;-64
2023/05/29 00:11:50;;;;;;;2.38;0.73;;;14.90;99.90;;;;;;5068561;28;20031;-64
2023/05/29 00:14:23;;;;;;;1.35;0.50;;;15.00;99.90;;;;;;5085391;28;20016;-61
2023/05/29 00:16:52;;;;;;;5.03;0.50;;;15.10;99.90;;;;;;5058277;28;20025;-62
2023/05/29 00:19:19;;;;;;;3.80;0.65;;;15.30;99.90;;;;;;5085138;28;20038;-62
2023/05/29 00:21:48;;;;;;;0.75;0.30;;;15.40;99.90;;;;;;5089843;28;20032;-62
2023/05/29 00:24:16;;;;;;;1.90;0.50;;;15.60;99.90;;;;;;5090461;28;20086;-61
2023/05/29 00:26:44;;;;;;;0.95;0.50;;;15.80;99.90;;;;;;5092213;28;20361;-62
2023/05/29 00:29:12;;;;;;;1.70;0.68;;;16.00;99.90;;;;;;5085626;28;20016;-61
2023/05/29 00:31:39;;;;;;;2.08;0.60;;;16.10;99.90;;;;;;5074234;28;20032;-63
2023/05/29 00:34:06;;;;;;;2.67;1.17;;;16.30;99.90;;;;;;5070546;28;20028;-63
2023/05/29 00:36:36;;;;;;;0.73;0.20;;;16.40;99.90;;;;;;5061149;28;20090;-64
2023/05/29 00:39:04;;;;;;;2.60;0.60;;;16.60;99.90;;;;;;5088927;28;20136;-61
2023/05/29 00:41:31;;;;;;;0.57;0.35;;;16.70;99.90;;;;;;5084901;28;20135;-63
2023/05/29 00:43:59;;;;;;;1.02;0.47;;;16.80;99.90;;;;;;5090688;28;20118;-62
2023/05/29 00:46:27;;;;;;;0.40;0.30;;;16.90;99.90;;;;;;5085714;28;20013;-61
2023/05/29 00:48:55;;;;;;;1.67;0.40;;;16.90;99.90;;;;;;5079963;28;20078;-60
2023/05/29 00:51:23;;;;;;;0.25;0.20;;;17.00;99.90;;;;;;5075003;28;20013;-61
2023/05/29 00:53:53;;;;;;;0.38;0.20;;;17.00;99.90;;;;;;5085725;28;20403;-62
2023/05/29 00:56:21;;;;;;;0.85;0.28;;;17.10;99.90;;;;;;5052688;28;20396;-62
2023/05/29 00:58:53;;;;;;;3.67;0.40;;;17.30;99.90;;;;;;5078907;28;20059;-61
2023/05/29 01:01:24;;;;;;;0.68;0.43;;;17.50;99.90;;;;;;5094931;28;20103;-62
2023/05/29 01:03:53;;;;;;;0.40;0.30;;;17.70;99.90;;;;;;5052447;28;20523;-62
2023/05/29 01:06:20;;;;;;;0.55;0.30;;;17.80;99.90;;;;;;5072632;28;20028;-64
2023/05/29 01:08:48;;;;;;;0.60;0.20;;;17.80;99.90;;;;;;5084643;28;20067;-62
2023/05/29 01:11:47;;;;;;;0.80;0.63;;;17.90;99.90;;;;;;5075055;28;20024;-61
2023/05/29 01:14:26;;;;;;;1.52;0.38;;;18.00;99.90;;;;;;5069028;28;20035;-62
2023/05/29 01:17:19;;;;;;;0.52;0.30;;;18.10;99.90;;;;;;5075341;28;20028;-62
2023/05/29 01:20:27;;;;;;;1.80;0.40;;;18.10;99.90;;;;;;5059453;28;20041;-62
2023/05/29 01:23:09;;;;;;;1.08;0.30;;;18.20;99.90;;;;;;5003521;28;20028;-61
2023/05/29 01:26:06;;;;;;;1.55;0.30;;;18.30;99.90;;;;;;5069006;28;20032;-62
2023/05/29 01:28:53;;;;;;;0.60;0.40;;;18.30;99.90;;;;;;5059703;28;20021;-63
2023/05/29 01:31:25;;;;;;;1.10;0.40;;;18.40;99.60;;;;;;5074594;28;20600;-64
2023/05/29 01:34:00;;;;;;;1.17;0.20;;;18.50;98.70;;;;;;5063935;28;20024;-65
2023/05/29 01:36:28;;;;;;;1.05;0.40;;;18.40;97.80;;;;;;5074285;28;20389;-65
2023/05/29 01:38:58;;;;;;;0.63;0.30;;;18.40;97.20;;;;;;5069522;28;20047;-64
2023/05/29 01:41:27;;;;;;;1.08;0.40;;;18.40;97.60;;;;;;5071476;28;20028;-65
2023/05/29 01:43:54;;;;;;;1.38;0.60;;;18.40;97.60;;;;;;5077729;28;20028;-72
2023/05/29 01:46:25;;;;;;;0.20;0.20;;;18.60;99.40;;;;;;5052772;28;20481;-66
2023/05/29 01:48:55;;;;;;;0.95;0.28;;;18.70;97.90;;;;;;5060909;28;20442;-66
2023/05/29 01:51:22;;;;;;;0.75;0.20;;;18.70;96.70;;;;;;5083772;28;20027;-64
2023/05/29 01:53:50;;;;;;;0.17;0.17;;;18.80;95.00;;;;;;5061785;28;20055;-64
2023/05/29 01:56:18;;;;;;;0.75;0.40;;;19.00;96.90;;;;;;5075111;28;20103;-64
2023/05/29 01:58:46;;;;;;;0.82;0.30;;;19.10;95.20;;;;;;5080504;28;20039;-64
2023/05/29 02:01:13;;;;;;;2.65;0.38;;;19.10;94.20;;;;;;5076395;28;20036;-65
2023/05/29 02:03:41;;;;;;;0.52;0.40;;;19.20;94.50;;;;;;5058452;28;20070;-65
2023/05/29 02:06:08;;;;;;;1.85;0.20;;;19.30;95.30;;;;;;5067933;28;20050;-65
2023/05/29 02:08:36;;;;;;;0.40;0.30;;;19.40;92.70;;;;;;5076767;28;20021;-65
2023/05/29 02:11:03;;;;;;;0.47;0.28;;;19.50;93.10;;;;;;5082770;28;20024;-65
2023/05/29 02:13:31;;;;;;;2.38;0.38;;;19.60;92.10;;;;;;5063521;28;20054;-65
2023/05/29 02:16:00;;;;;;;0.35;0.10;;;19.60;90.60;;;;;;5080879;28;20131;-65
2023/05/29 02:18:28;;;;;;;0.63;0.25;;;19.70;91.80;;;;;;5071883;28;20058;-67
2023/05/29 02:20:55;;;;;;;0.57;0.40;;;19.80;91.00;;;;;;5059906;28;20032;-65
2023/05/29 02:23:23;;;;;;;1.75;0.40;;;19.80;89.90;;;;;;5072647;28;20416;-65
2023/05/29 02:25:51;;;;;;;1.42;0.65;;;19.90;90.80;;;;;;5076783;28;20059;-65
2023/05/29 02:28:18;;;;;;;0.35;0.20;;;20.00;89.90;;;;;;5084616;28;20025;-66
2023/05/29 02:30:46;;;;;;;1.48;0.50;;;20.00;86.30;;;;;;5056134;28;20383;-62
2023/05/29 02:33:13;;;;;;;3.80;0.60;;;20.00;89.10;;;;;;5073255;28;20025;-61
2023/05/29 02:35:40;;;;;;;2.28;0.45;;;20.00;88.60;;;;;;5072883;28;20021;-62
2023/05/29 02:38:08;;;;;;;1.15;0.28;;;20.00;87.80;;;;;;5083665;28;20397;-62
2023/05/29 02:40:35;;;;;;;6.28;0.60;;;20.20;87.70;;;;;;5075094;28;20149;-62
2023/05/29 02:43:03;;;;;;;4.88;1.10;;;20.20;87.80;;;;;;5076968;28;20028;-62
2023/05/29 02:45:30;;;;;;;3.03;0.52;;;20.20;87.40;;;;;;5068613;28;20111;-64
2023/05/29 02:47:59;;;;;;;1.00;0.50;;;20.20;89.50;;;;;;5069588;28;20028;-63
2023/05/29 02:50:27;;;;;;;0.10;0.10;;;20.40;87.30;;;;;;5068959;28;20035;-62
2023/05/29 02:52:55;;;;;;;0.30;0.20;;;20.60;81.70;;;;;;5072879;28;20075;-63
2023/05/29 02:55:22;;;;;;;0.30;0.30;;;20.70;79.80;;;;;;5078481;28;20017;-63
2023/05/29 02:57:52;;;;;;;1.17;0.20;;;20.70;77.20;;;;;;5080398;28;20017;-65
2023/05/29 03:00:20;;;;;;;0.10;0.10;;;20.80;77.90;;;;;;5084897;28;20025;-65
2023/05/29 03:02:48;;;;;;;0.20;0.13;;;20.70;75.90;;;;;;5068986;28;20036;-65
2023/05/29 03:05:17;;;;;;;0.30;0.20;;;20.80;78.60;;;;;;5057035;28;20047;-65
2023/05/29 03:07:44;;;;;;;3.72;0.35;;;20.80;75.10;;;;;;5085200;28;20020;-65
2023/05/29 03:10:12;;;;;;;7.80;0.60;;;20.70;71.30;;;;;;5073132;28;20020;-64
2023/05/29 03:12:41;;;;;;;10.07;1.60;;;20.70;67.80;;;;;;5072534;28;20024;-65
2023/05/29 03:15:08;;;;;;;32.30;2.92;;;20.60;68.20;;;;;;5057431;28;20023;-64
2023/05/29 03:17:38;;;;;;;14.85;1.23;;;20.60;67.50;;;;;;5072562;28;20514;-65
2023/05/29 03:20:07;;;;;;;20.20;0.95;;;20.70;67.60;;;;;;5085447;28;20046;-65
2023/05/29 03:22:38;;;;;;;5.50;0.68;;;20.70;67.80;;;;;;5057667;28;20015;-65
2023/05/29 03:25:06;;;;;;;16.88;1.00;;;20.60;68.00;;;;;;5078022;28;20381;-65
2023/05/29 03:27:33;;;;;;;5.05;0.88;;;20.60;68.20;;;;;;5075033;28;20029;-64
2023/05/29 03:30:01;;;;;;;0.30;0.30;;;20.70;68.90;;;;;;5082230;28;20058;-65
2023/05/29 03:32:28;;;;;;;1.50;0.40;;;20.70;68.70;;;;;;5078898;28;20020;-64
2023/05/29 03:34:57;;;;;;;6.00;0.60;;;20.70;68.90;;;;;;5072781;28;20025;-64
2023/05/29 03:37:25;;;;;;;15.93;1.33;;;20.60;67.30;;;;;;5073431;28;20017;-65
2023/05/29 03:39:52;;;;;;;5.80;0.77;;;20.50;67.70;;;;;;5072006;28;20044;-65
2023/05/29 03:42:20;;;;;;;5.25;0.50;;;20.50;68.90;;;;;;5080352;28;20031;-65
2023/05/29 03:44:47;;;;;;;2.20;0.60;;;20.50;68.00;;;;;;5082223;28;20031;-65
2023/05/29 03:47:15;;;;;;;0.65;0.52;;;20.50;68.40;;;;;;5051304;28;20028;-65
2023/05/29 03:49:42;;;;;;;2.05;0.40;;;20.50;69.60;;;;;;5074773;28;20020;-65
2023/05/29 03:52:10;;;;;;;6.43;0.50;;;20.40;67.60;;;;;;5075114;28;20123;-65
2023/05/29 03:54:37;;;;;;;6.47;0.77;;;20.30;67.60;;;;;;5076190;28;21745;-65
2023/05/29 03:57:06;;;;;;;1.85;0.20;;;20.30;68.50;;;;;;5066808;28;20023;-66
2023/05/29 03:59:34;;;;;;;3.38;0.38;;;20.20;68.50;;;;;;5075122;28;20040;-65
2023/05/29 04:02:01;;;;;;;0.20;0.20;;;20.10;68.30;;;;;;5068681;28;20020;-65
2023/05/29 04:04:29;;;;;;;0.90;0.30;;;20.10;69.70;;;;;;5081213;28;20433;-65
2023/05/29 04:06:56;;;;;;;4.85;0.68;;;20.10;68.90;;;;;;5077750;28;20487;-62
2023/05/29 04:09:24;;;;;;;1.30;0.30;;;20.10;71.10;;;;;;5085141;28;20039;-64
2023/05/29 04:11:51;;;;;;;2.90;0.22;;;20.20;70.70;;;;;;5081711;28;20039;-64
2023/05/29 04:14:19;;;;;;;0.65;0.20;;;20.20;69.90;;;;;;5063760;28;20028;-64
2023/05/29 04:16:46;;;;;;;0.15;0.10;;;20.10;71.30;;;;;;5077813;28;20038;-64
2023/05/29 04:19:14;;;;;;;0.45;0.30;;;20.10;70.70;;;;;;5077814;28;20068;-64
2023/05/29 04:21:42;;;;;;;0.10;0.10;;;20.10;70.70;;;;;;5080803;28;20099;-64
2023/05/29 04:24:10;;;;;;;1.05;0.30;;;20.10;70.20;;;;;;5076202;28;20036;-64
2023/05/29 04:26:41;;;;;;;1.13;0.30;;;20.00;69.50;;;;;;5074449;28;20584;-64
2023/05/29 04:29:09;;;;;;;0.88;0.28;;;20.00;70.20;;;;;;5070768;28;20628;-63
2023/05/29 04:31:37;;;;;;;0.30;0.30;;;19.90;67.60;;;;;;5059788;28;20028;-64
2023/05/29 04:34:04;;;;;;;1.10;0.35;;;19.90;67.20;;;;;;5079387;28;20024;-63
2023/05/29 04:36:38;;;;;;;0.22;0.20;;;19.70;66.50;;;;;;5061071;28;20021;-64
2023/05/29 04:39:07;;;;;;;0.93;0.68;;;19.60;66.60;;;;;;5079345;28;20038;-63
2023/05/29 04:41:35;;;;;;;0.20;0.20;;;19.60;66.00;;;;;;5077991;28;20111;-64
2023/05/29 04:44:03;;;;;;;0.93;0.40;;;19.60;66.60;;;;;;5076027;28;20017;-63
2023/05/29 04:46:31;;;;;;;0.20;0.10;;;19.50;66.20;;;;;;5059358;28;20363;-63
2023/05/29 04:48:58;;;;;;;3.22;0.40;;;19.40;67.40;;;;;;5056719;28;20079;-62
2023/05/29 04:51:28;;;;;;;0.20;0.20;;;19.40;67.70;;;;;;5078483;28;20102;-62
2023/05/29 04:53:56;;;;;;;0.73;0.32;;;19.30;66.20;;;;;;5060655;28;20054;-61
2023/05/29 04:56:24;;;;;;;1.83;0.55;;;19.10;66.30;;;;;;5058536;28;20528;-61
2023/05/29 04:58:51;;;;;;;0.95;0.40;;;19.00;66.90;;;;;;5075845;28;20040;-59
2023/05/29 05:01:19;;;;;;;1.08;0.50;;;19.00;66.80;;;;;;5078196;28;20059;-62
2023/05/29 05:03:47;;;;;;;0.75;0.30;;;19.00;68.00;;;;;;5079625;28;20039;-66
2023/05/29 05:06:16;;;;;;;1.33;0.30;;;18.90;68.60;;;;;;5076482;28;20020;-65
2023/05/29 05:08:44;;;;;;;1.17;0.30;;;18.90;68.50;;;;;;5072640;28;20122;-64
2023/05/29 05:11:11;;;;;;;17.48;0.77;;;18.80;69.00;;;;;;5076645;28;20025;-63
2023/05/29 05:13:39;;;;;;;0.95;0.25;;;18.80;68.80;;;;;;5079560;28;20032;-62
2023/05/29 05:16:07;;;;;;;2.05;0.32;;;18.70;68.70;;;;;;5080483;28;20070;-61
2023/05/29 05:18:34;;;;;;;0.77;0.30;;;18.70;67.00;;;;;;5077442;28;20025;-63
2023/05/29 05:21:03;;;;;;;0.43;0.20;;;18.60;67.10;;;;;;5070850;28;20028;-63
2023/05/29 05:23:31;;;;;;;0.30;0.20;;;18.60;67.30;;;;;;5085608;28;20036;-63
2023/05/29 05:25:59;;;;;;;2.03;0.30;;;18.60;67.70;;;;;;5060656;28;20444;-62
2023/05/29 05:28:27;;;;;;;0.40;0.30;;;18.50;68.10;;;;;;5080099;28;20619;-69
2023/05/29 05:30:54;;;;;;;1.08;0.35;;;18.40;68.40;;;;;;5070154;28;20040;-68
2023/05/29 05:33:22;;;;;;;6.32;0.40;;;18.40;68.10;;;;;;5054697;28;20029;-69
2023/05/29 05:35:49;;;;;;;1.13;0.32;;;18.30;68.90;;;;;;5070089;28;20020;-69
2023/05/29 05:38:17;;;;;;;0.47;0.30;;;18.30;68.80;;;;;;5071375;28;20067;-67
2023/05/29 05:40:45;;;;;;;0.75;0.28;;;18.30;69.30;;;;;;5075430;28;20114;-69
2023/05/29 05:43:12;;;;;;;0.47;0.38;;;18.20;69.60;;;;;;5073739;28;20078;-66
2023/05/29 05:45:42;;;;;;;1.67;0.50;;;18.20;69.60;;;;;;5077670;28;20051;-69
2023/05/29 05:48:09;;;;;;;1.38;0.30;;;18.10;69.90;;;;;;5075941;28;20401;-68
2023/05/29 05:50:37;;;;;;;0.98;0.38;;;18.10;70.00;;;;;;5074265;28;20024;-69
2023/05/29 05:53:04;;;;;;;0.50;0.30;;;18.00;70.80;;;;;;5076694;28;20043;-67
2023/05/29 05:55:32;;;;;;;0.45;0.25;;;18.00;70.20;;;;;;5074695;28;20034;-68
2023/05/29 05:57:59;;;;;;;0.77;0.25;;;17.90;70.90;;;;;;5075754;28;20024;-68
2023/05/29 06:00:27;;;;;;;1.10;0.38;;;17.80;70.30;;;;;;5080124;28;20064;-63
2023/05/29 06:02:55;;;;;;;0.52;0.38;;;17.70;71.00;;;;;;5075264;28;20059;-64
2023/05/29 06:05:23;;;;;;;1.80;0.50;;;17.60;71.60;;;;;;5077669;28;20510;-63
2023/05/29 06:07:50;;;;;;;0.70;0.40;;;17.50;71.50;;;;;;5065178;28;20085;-65
2023/05/29 06:10:18;;;;;;;0.63;0.32;;;17.40;72.20;;;;;;5057560;28;20736;-65
2023/05/29 06:12:46;;;;;;;3.67;0.43;;;17.30;73.30;;;;;;5075492;28;20033;-62
2023/05/29 06:15:14;;;;;;;4.22;1.20;;;17.20;73.70;;;;;;5060107;28;20393;-62
2023/05/29 06:17:41;;;;;;;16.02;1.77;;;17.20;74.00;;;;;;5071967;28;20354;-64
2023/05/29 06:20:10;;;;;;;9.80;0.95;;;17.20;73.30;;;;;;5056592;28;20044;-63
2023/05/29 06:22:38;;;;;;;3.20;0.60;;;17.10;73.60;;;;;;5077697;28;20019;-63
2023/05/29 06:25:06;;;;;;;5.93;0.63;;;17.10;73.60;;;;;;5073794;28;20051;-62
2023/05/29 06:27:33;;;;;;;5.30;0.40;;;17.10;73.10;;;;;;5056553;28;20028;-63
2023/05/29 06:30:01;;;;;;;1.17;0.30;;;17.00;74.00;;;;;;5074652;28;20078;-62
2023/05/29 06:32:28;;;;;;;2.70;0.57;;;16.90;74.50;;;;;;5075887;28;20028;-62
2023/05/29 06:34:56;;;;;;;1.67;0.80;;;16.80;75.20;;;;;;5077488;28;20024;-62
2023/05/29 06:37:23;;;;;;;1.35;0.50;;;16.70;76.00;;;;;;5073049;28;20358;-62
2023/05/29 06:39:51;;;;;;;1.35;0.47;;;16.60;76.80;;;;;;5074709;28;20734;-63
2023/05/29 06:42:18;;;;;;;2.88;0.50;;;16.40;77.00;;;;;;5077224;28;20017;-62
2023/05/29 06:44:46;;;;;;;9.38;1.67;;;16.40;78.10;;;;;;5075869;28;20036;-62
2023/05/29 06:47:13;;;;;;;5.90;0.85;;;16.30;78.30;;;;;;5073860;28;20012;-62
2023/05/29 06:49:41;;;;;;;8.65;2.58;;;16.20;79.20;;;;;;5073702;28;20036;-62
2023/05/29 06:52:08;;;;;;;6.95;1.08;;;16.10;80.40;;;;;;5077724;28;20028;-62
2023/05/29 06:54:35;;;;;;;8.43;1.40;;;15.90;80.60;;;;;;5071095;28;20691;-63
2023/05/29 06:57:03;;;;;;;8.02;1.23;;;15.80;82.30;;;;;;5057600;28;20028;-62
2023/05/29 06:59:30;;;;;;;10.90;1.40;;;15.60;83.60;;;;;;5079009;28;20521;-62
2023/05/29 07:01:58;;;;;;;12.55;1.52;;;15.60;84.10;;;;;;5078461;28;20111;-62
2023/05/29 07:04:25;;;;;;;5.03;1.25;;;15.50;85.40;;;;;;5076143;28;20035;-62
2023/05/29 07:06:53;;;;;;;19.52;1.58;;;15.40;85.40;;;;;;5075162;28;20031;-62
2023/05/29 07:09:20;;;;;;;14.55;2.30;;;15.20;88.00;;;;;;5075108;28;21017;-64
2023/05/29 07:11:48;;;;;;;12.48;1.30;;;15.00;90.20;;;;;;5072572;28;20032;-62
2023/05/29 07:14:15;;;;;;;9.38;1.05;;;14.70;90.30;;;;;;5072724;28;20070;-63
2023/05/29 07:16:43;;;;;;;7.75;1.15;;;14.40;91.00;;;;;;5072289;28;20024;-63
2023/05/29 07:19:13;;;;;;;4.85;0.90;;;14.20;92.60;;;;;;5058492;28;20044;-60
2023/05/29 07:21:40;;;;;;;4.50;0.98;;;13.90;93.90;;;;;;5060183;28;20089;-60
2023/05/29 07:24:08;;;;;;;3.45;0.88;;;13.80;95.70;;;;;;5076097;28;20043;-62
2023/05/29 07:26:35;;;;;;;4.85;0.73;;;13.60;97.60;;;;;;5070007;28;20096;-61
2023/05/29 07:29:03;;;;;;;3.38;0.85;;;13.70;97.90;;;;;;5072855;28;20032;-61
2023/05/29 07:31:30;;;;;;;5.60;0.80;;;13.90;97.00;;;;;;5050124;28;20020;-65
2023/05/29 07:33:58;;;;;;;3.17;0.90;;;14.10;95.70;;;;;;5073796;28;20070;-61
2023/05/29 07:36:33;;;;;;;2.72;0.95;;;14.30;95.00;;;;;;5049638;28;20029;-61
2023/05/29 07:39:01;;;;;;;4.90;1.10;;;14.30;94.70;;;;;;5079704;28;20048;-62
2023/05/29 07:41:28;;;;;;;4.65;0.85;;;14.30;94.80;;;;;;5077884;28;20020;-62
2023/05/29 07:43:56;;;;;;;1.13;0.63;;;14.30;94.60;;;;;;5074748;28;20028;-61
2023/05/29 07:46:23;;;;;;;2.97;0.80;;;14.30;93.80;;;;;;5078041;28;20116;-61
2023/05/29 07:48:51;;;;;;;2.65;1.00;;;14.30;93.60;;;;;;5075236;28;20722;-61
2023/05/29 07:51:19;;;;;;;2.42;0.50;;;14.20;94.10;;;;;;5078530;28;20032;-62
2023/05/29 07:53:47;;;;;;;1.73;0.68;;;14.10;94.50;;;;;;5076596;28;20047;-62
2023/05/29 07:56:14;;;;;;;3.47;1.05;;;14.00;94.50;;;;;;5071305;28;20031;-61
2023/05/29 07:58:42;;;;;;;1.60;0.88;;;13.90;94.80;;;;;;5078573;28;20047;-62
2023/05/29 08:01:09;;;;;;;2.65;0.47;;;13.90;95.20;;;;;;5081782;28;20035;-61
2023/05/29 08:03:37;;;;;;;2.50;0.75;;;13.70;95.10;;;;;;5073707;28;20093;-61
2023/05/29 08:06:04;;;;;;;2.00;0.60;;;13.50;95.50;;;;;;5072476;28;20024;-61
2023/05/29 08:08:32;;;;;;;3.78;0.70;;;13.30;96.30;;;;;;5056775;28;20028;-61
2023/05/29 08:11:00;;;;;;;2.97;0.80;;;13.20;97.70;;;;;;5076778;28;20033;-61
2023/05/29 08:13:27;;;;;;;2.17;0.88;;;13.10;97.90;;;;;;5079432;28;20032;-61
2023/05/29 08:15:55;;;;;;;1.55;0.70;;;13.10;98.10;;;;;;5057044;28;20024;-61
2023/05/29 08:18:26;;;;;;;2.70;0.98;;;13.00;98.60;;;;;;5070136;28;20028;-61
2023/05/29 08:20:53;;;;;;;2.88;1.10;;;12.90;98.70;;;;;;5069046;28;20488;-61
2023/05/29 08:23:21;;;;;;;4.80;0.85;;;12.80;99.20;;;;;;5070577;28;20670;-62
2023/05/29 08:25:48;;;;;;;3.40;1.17;;;12.70;99.70;;;;;;5053101;28;20060;-62
2023/05/29 08:28:16;;;;;;;2.42;0.63;;;12.70;99.90;;;;;;5077413;28;20031;-62
2023/05/29 08:30:44;;;;;;;1.30;0.50;;;12.70;99.90;;;;;;5072318;28;20396;-63
2023/05/29 08:33:11;;;;;;;1.05;0.57;;;12.60;99.90;;;;;;5071603;28;20420;-63
2023/05/29 08:35:39;;;;;;;3.90;1.08;;;12.50;99.90;;;;;;5077302;28;20035;-62
2023/05/29 08:38:06;;;;;;;5.97;0.80;;;12.40;99.90;;;;;;5077088;28;20031;-62
2023/05/29 08:40:34;;;;;;;2.20;1.08;;;12.40;99.90;;;;;;5074652;28;20031;-62
2023/05/29 08:43:21;;;;;;;2.50;1.08;;;12.30;99.90;;;;;;5075086;28;20108;-62
2023/05/29 08:45:54;;;;;;;2.08;0.88;;;12.20;99.90;;;;;;5075046;28;20029;-63
2023/05/29 08:48:27;;;;;;;1.70;0.80;;;12.00;99.90;;;;;;5074389;28;20012;-63
2023/05/29 08:50:57;;;;;;;3.40;0.90;;;11.90;99.90;;;;;;5077714;28;20515;-62
2023/05/29 08:53:25;;;;;;;3.97;1.20;;;11.70;99.90;;;;;;5058334;28;20041;-62
2023/05/29 08:55:55;;;;;;;2.53;1.27;;;11.50;99.90;;;;;;5074266;28;20513;-62
2023/05/29 08:58:25;;;;;;;2.47;1.00;;;11.40;99.90;;;;;;5077121;28;20058;-62
2023/05/29 09:00:53;;;;;;;2.33;1.20;;;11.30;99.90;;;;;;5055599;28;20110;-62
2023/05/29 09:03:22;;;;;;;5.28;1.33;;;11.10;99.90;;;;;;5059552;28;20195;-62
2023/05/29 09:05:50;;;;;;;3.20;1.50;;;11.00;99.90;;;;;;5072877;28;20028;-62
2023/05/29 09:08:18;;;;;;;4.35;1.80;;;10.90;99.90;;;;;;5057202;28;20049;-62
2023/05/29 09:10:46;;;;;;;5.78;1.55;;;10.90;99.90;;;;;;5073475;28;20036;-62
2023/05/29 09:13:14;;;;;;;3.10;1.27;;;10.80;99.90;;;;;;5073094;28;20497;-61
2023/05/29 09:15:45;;;;;;;3.85;1.83;;;10.80;99.90;;;;;;5070877;28;20645;-61
2023/05/29 09:18:12;;;;;;;8.40;1.90;;;10.70;99.90;;;;;;5076786;28;20024;-62
2023/05/29 09:20:40;;;;;;;5.53;1.70;;;10.60;99.90;;;;;;5070907;28;20115;-60
2023/05/29 09:23:11;;;;;;;5.85;1.30;;;10.50;99.90;;;;;;5079313;28;20047;-55
2023/05/29 09:25:42;;;;;;;3.70;1.55;;;10.50;99.90;;;;;;5079753;28;20761;-61
2023/05/29 09:28:10;;;;;;;3.05;1.45;;;10.50;99.90;;;;;;5070176;28;20025;-61
2023/05/29 09:30:42;;;;;;;5.32;2.03;;;10.40;99.90;;;;;;5070710;28;20113;-61
2023/05/29 09:33:16;;;;;;;3.63;1.58;;;10.40;99.90;;;;;;5079746;28;20032;-61
2023/05/29 09:35:45;;;;;;;8.02;2.30;;;10.30;99.90;;;;;;5070479;28;20121;-61
2023/05/29 09:38:15;;;;;;;3.55;1.80;;;10.20;99.90;;;;;;5069841;28;20045;-61
2023/05/29 09:40:46;;;;;;;4.53;2.47;;;10.20;99.90;;;;;;5059457;28;20032;-61
2023/05/29 09:43:17;;;;;;;6.85;2.08;;;10.30;99.90;;;;;;5078818;28;20461;-61
2023/05/29 09:45:50;;;;;;;4.78;1.60;;;10.20;99.90;;;;;;5068762;28;20377;-62
2023/05/29 09:48:24;;;;;;;5.53;1.75;;;10.10;99.90;;;;;;5081748;28;20012;-61
2023/05/29 09:50:53;;;;;;;4.47;1.55;;;10.00;99.90;;;;;;5074784;28;20503;-62
2023/05/29 09:53:28;;;;;;;6.88;2.08;;;9.90;99.90;;;;;;5077791;28;20117;-62
2023/05/29 09:55:55;;;;;;;;;;;9.90;99.90;;;;;;5084780;28;20507;-62
2023/05/29 09:58:25;;;;;;;6.55;1.30;;;9.80;99.90;;;;;;5083049;28;19969;-63
2023/05/29 10:00:53;;;;;;;5.20;1.35;;;9.80;99.90;;;;;;5081038;28;20032;-62
2023/05/29 10:03:23;;;;;;;2.65;1.35;;;9.70;99.90;;;;;;5052172;28;20032;-62
2023/05/29 10:05:56;;;;;;;3.05;1.40;;;9.60;99.90;;;;;;5083888;28;20032;-62
2023/05/29 10:08:24;;;;;;;4.00;1.70;;;9.60;99.90;;;;;;5078567;28;20052;-62
2023/05/29 10:11:09;;;;;;;6.60;3.00;;;9.50;99.90;;;;;;5079882;28;20486;-62
2023/05/29 10:13:38;;;;;;;;;;;9.50;99.90;;;;;;5079206;28;20040;-62
2023/05/29 10:16:12;;;;;;;5.72;3.15;;;9.50;99.90;;;;;;5076505;28;19923;-62
2023/05/29 10:18:49;;;;;;;10.00;4.03;;;9.40;99.90;;;;;;5074090;28;20090;-62
2023/05/29 10:21:18;;;;;;;6.65;2.60;;;9.40;99.90;;;;;;5077828;28;20032;-62
2023/05/29 10:23:49;;;;;;;5.70;2.60;;;9.30;99.90;;;;;;5075507;28;20038;-62
2023/05/29 10:26:27;;;;;;;5.75;2.28;;;9.20;99.90;;;;;;5073547;28;20028;-61
2023/05/29 10:29:13;;;;;;;3.58;2.38;;;9.10;99.90;;;;;;5094585;28;20028;-62
2023/05/29 10:32:03;;;;;;;5.82;2.22;;;9.00;99.90;;;;;;5066748;28;20056;-61
2023/05/29 10:34:53;;;;;;;6.75;2.22;;;9.00;99.90;;;;;;5074687;28;20037;-62
2023/05/29 10:37:43;;;;;;;2.97;1.50;;;8.90;99.90;;;;;;5069738;28;20111;-62
2023/05/29 10:40:16;;;;;;;2.30;1.33;;;8.70;99.90;;;;;;5056871;28;20097;-61
2023/05/29 10:42:52;;;;;;;3.70;1.77;;;8.70;99.90;;;;;;5075970;28;20027;-61
2023/05/29 10:45:31;;;;;;;3.83;1.40;;;8.60;99.90;;;;;;5071281;28;20041;-62
2023/05/29 10:48:10;;;;;;;2.60;1.38;;;8.50;99.90;;;;;;5079198;28;20027;-62
2023/05/29 10:50:41;;;;;;;3.10;1.60;;;8.50;99.90;;;;;;5076980;28;20029;-62
2023/05/29 10:53:12;;;;;;;2.13;1.33;;;8.50;99.90;;;;;;5078880;28;20557;-61
2023/05/29 10:55:40;;;;;;;5.25;1.88;;;8.60;99.90;;;;;;5077930;28;20114;-62
2023/05/29 10:58:22;;;;;;;3.38;1.50;;;8.60;99.90;;;;;;5073337;28;20390;-61
2023/05/29 11:00:53;;;;;;;4.13;2.13;;;8.60;99.90;;;;;;5053685;28;20032;-62
2023/05/29 11:03:33;;;;;;;3.92;1.70;;;8.60;99.90;;;;;;5070359;28;20071;-61
2023/05/29 11:06:10;;;;;;;5.20;1.70;;;8.60;99.90;;;;;;5078432;28;20053;-65
2023/05/29 11:08:53;;;;;;;5.15;1.85;;;8.50;99.90;;;;;;5053681;28;20037;-62
2023/05/29 11:11:38;;;;;;;3.53;1.55;;;8.50;99.90;;;;;;5055643;28;20032;-62
2023/05/29 11:14:07;;;;;;;4.72;3.05;;;8.50;99.90;;;;;;5074116;28;20020;-62
2023/05/29 11:16:35;;;;;;;4.47;2.83;;;8.40;99.90;;;;;;5057663;28;20503;-62
2023/05/29 11:19:10;;;;;;;9.60;2.83;;;8.30;99.90;;;;;;5079153;28;20520;-62
2023/05/29 11:21:52;;;;;;;6.68;2.70;;;8.20;99.90;;;;;;5074742;28;20028;-61
2023/05/29 11:24:29;;;;;;;7.68;3.35;;;8.10;99.90;;;;;;5079869;28;20466;-61
2023/05/29 11:27:06;;;;;;;7.13;2.75;;;8.10;99.90;;;;;;5061823;28;20042;-62
2023/05/29 11:29:33;;;;;;;20.30;5.75;;;8.10;99.90;;;;;;5081583;28;20024;-61
2023/05/29 11:32:09;;;;;;;21.45;6.53;;;8.00;99.90;;;;;;5076198;28;20059;-62
2023/05/29 11:34:41;;;;;;;22.95;7.97;;;8.00;99.90;;;;;;5072150;28;20025;-61
2023/05/29 11:37:09;;;;;;;19.42;6.80;;;8.00;99.90;;;;;;5077106;28;20037;-60
2023/05/29 11:39:40;;;;;;;19.38;5.28;;;8.00;99.90;;;;;;5073074;28;20036;-61
2023/05/29 11:42:08;;;;;;;17.45;5.43;;;7.90;99.90;;;;;;5074299;28;20048;-61
2023/05/29 11:44:36;;;;;;;16.80;5.13;;;7.90;99.90;;;;;;5076315;28;20434;-61
2023/05/29 11:47:07;;;;;;;14.13;4.32;;;7.80;99.90;;;;;;5079571;28;20024;-61
2023/05/29 11:49:38;;;;;;;15.88;5.40;;;7.80;99.90;;;;;;5070573;28;20113;-61
2023/05/29 11:52:10;;;;;;;13.32;4.28;;;7.80;99.90;;;;;;5090024;28;20028;-61
2023/05/29 11:54:38;;;;;;;8.88;2.85;;;7.80;99.90;;;;;;5075845;28;20040;-62
2023/05/29 11:57:06;;;;;;;10.23;3.45;;;7.90;99.90;;;;;;5079456;28;20056;-60
2023/05/29 11:59:34;;;;;;;9.10;3.63;;;7.90;99.90;;;;;;5072313;28;20558;-61
2023/05/29 12:02:04;;;;;;;9.27;3.30;;;7.90;99.90;;;;;;5071845;28;20020;-62
2023/05/29 12:04:32;;;;;;;13.23;3.03;;;7.90;99.90;;;;;;5056307;28;20027;-61
2023/05/29 12:07:00;;;;;;;6.68;2.72;;;8.00;99.90;;;;;;5072599;28;20032;-60
2023/05/29 12:09:29;;;;;;;6.72;2.42;;;8.20;99.90;;;;;;5075207;28;20070;-60
2023/05/29 12:12:06;;;;;;;8.65;3.15;;;8.40;99.90;;;;;;5061614;28;20032;-60
2023/05/29 12:14:34;;;;;;;7.88;2.70;;;8.40;99.90;;;;;;5071605;28;20027;-61
2023/05/29 12:17:02;;;;;;;10.65;3.00;;;8.60;99.90;;;;;;5075225;28;20036;-61
2023/05/29 12:19:29;;;;;;;6.05;2.30;;;8.70;99.90;;;;;;5071400;28;20033;-61
2023/05/29 12:21:58;;;;;;;6.30;2.35;;;8.80;99.90;;;;;;5072838;28;20760;-61
2023/05/29 12:24:25;;;;;;;8.00;2.95;;;8.70;99.90;;;;;;5084918;28;20443;-61
2023/05/29 12:26:53;;;;;;;6.40;2.47;;;8.60;99.90;;;;;;5072261;28;20025;-59
2023/05/29 12:29:30;;;;;;;7.00;2.20;;;8.90;99.90;;;;;;5073004;28;20596;-61
2023/05/29 12:32:03;;;;;;;4.55;1.60;;;8.90;99.90;;;;;;5042751;28;20024;-61
2023/05/29 12:34:40;;;;;;;4.22;1.95;;;8.90;99.90;;;;;;5082795;28;20016;-62
2023/05/29 12:37:13;;;;;;;10.00;2.63;;;9.00;99.90;;;;;;5082783;28;20024;-60
2023/05/29 12:39:41;;;;;;;8.05;1.67;;;9.10;99.90;;;;;;5080758;28;20147;-61
2023/05/29 12:42:09;;;;;;;5.00;2.25;;;9.00;99.90;;;;;;5079589;28;20029;-61
2023/05/29 12:44:38;;;;;;;9.23;3.53;;;8.80;99.90;;;;;;5073024;28;20055;-61
2023/05/29 12:47:06;;;;;;;7.93;2.50;;;8.70;99.90;;;;;;5063428;28;20196;-62
2023/05/29 12:49:37;;;;;;;4.25;2.20;;;8.70;99.90;;;;;;5061440;28;20032;-60
2023/05/29 12:52:09;;;;;;;4.60;2.03;;;8.60;99.90;;;;;;5076471;28;20025;-61
2023/05/29 12:54:38;;;;;;;7.43;2.00;;;8.70;99.90;;;;;;5079280;28;20115;-61
2023/05/29 12:57:06;;;;;;;5.35;1.60;;;8.80;99.90;;;;;;5061633;28;20546;-61
2023/05/29 12:59:34;;;;;;;4.78;1.75;;;9.00;99.90;;;;;;5066900;28;20039;-60
2023/05/29 13:02:02;;;;;;;6.32;1.70;;;9.00;99.90;;;;;;5083549;28;20032;-61